Terminal Aerodrome Forecast
Issued by NWS Jacksonville, FL

Home | Current Version | Previous Version | Text Only | Print | Product List | Glossary On
Versions: 1 2 3 4 5 6 7 8 9 10 11 12 13 14
000
FTUS42 KJAX 271100
TAFSSI
TAF
KSSI 271120Z 2712/2812 36004KT P6SM BKN040
     FM271400 04008KT P6SM SCT030 BKN060
     FM280200 05004KT 5SM BR BKN030=

USA.gov is the U.S. government's official web portal to all federal, state and local government web resources and services.